Time;durP1;ratioP1;P1;durP2;ratioP2;P2;SDS_P1;SDS_P2;PMS_P1;PMS_P2;Temp;Humidity;BMP_temperature;BMP_pressure;BME280_temperature;BME280_humidity;BME280_pressure;Samples;Min_cycle;Max_cycle;Signal;HPM_P1;HPM_P2
2023/09/11 00:01:46;;;;;;;0.00;0.00;;;19.60;49.40;;;;;;5051424;28;20204;-55
2023/09/11 00:04:16;;;;;;;0.00;0.00;;;19.70;49.50;;;;;;5052950;28;20573;-53
2023/09/11 00:06:47;;;;;;;0.00;0.00;;;19.70;49.40;;;;;;5052099;28;20198;-55
2023/09/11 00:09:17;;;;;;;0.03;0.03;;;19.70;49.40;;;;;;5052416;28;20587;-54
2023/09/11 00:11:50;;;;;;;0.00;0.00;;;19.70;49.40;;;;;;5052635;28;20590;-55
2023/09/11 00:14:21;;;;;;;0.00;0.00;;;19.70;49.40;;;;;;5051519;28;20199;-52
2023/09/11 00:16:51;;;;;;;0.00;0.00;;;19.80;49.40;;;;;;5052537;28;20203;-55
2023/09/11 00:19:22;;;;;;;0.00;0.00;;;19.80;49.40;;;;;;5052646;28;20226;-51
2023/09/11 00:21:52;;;;;;;0.03;0.03;;;19.80;49.40;;;;;;5052882;28;20200;-51
2023/09/11 00:24:23;;;;;;;0.10;0.10;;;19.80;49.40;;;;;;5052523;28;20219;-54
2023/09/11 00:26:56;;;;;;;0.00;0.00;;;19.80;49.30;;;;;;5052621;28;20742;-55
2023/09/11 00:29:26;;;;;;;0.08;0.08;;;19.90;49.30;;;;;;5052592;28;20607;-55
2023/09/11 00:31:57;;;;;;;0.10;0.10;;;19.90;49.30;;;;;;5052572;28;20219;-52
2023/09/11 00:34:29;;;;;;;0.10;0.10;;;19.90;49.30;;;;;;5052654;28;20214;-54
2023/09/11 00:37:00;;;;;;;0.00;0.00;;;19.90;49.20;;;;;;5055111;28;20230;-54
2023/09/11 00:39:30;;;;;;;0.10;0.10;;;20.00;49.30;;;;;;5052266;28;20219;-55
2023/09/11 00:42:03;;;;;;;0.00;0.00;;;20.00;49.20;;;;;;5052179;28;20214;-51
2023/09/11 00:44:34;;;;;;;0.10;0.10;;;20.00;49.20;;;;;;5051277;28;20203;-54
2023/09/11 00:47:04;;;;;;;0.00;0.00;;;20.00;49.20;;;;;;5051792;28;20192;-55
2023/09/11 00:49:35;;;;;;;0.00;0.00;;;20.10;49.10;;;;;;5048448;28;20222;-54
2023/09/11 00:52:06;;;;;;;0.00;0.00;;;20.10;49.10;;;;;;5059723;28;20215;-55
2023/09/11 00:54:37;;;;;;;0.10;0.10;;;20.10;49.10;;;;;;5050175;28;20199;-54
2023/09/11 00:57:10;;;;;;;0.00;0.00;;;20.10;49.10;;;;;;5032516;28;20682;-55
2023/09/11 00:59:41;;;;;;;0.00;0.00;;;20.20;49.10;;;;;;5047246;28;20572;-55
2023/09/11 01:02:11;;;;;;;0.00;0.00;;;20.20;49.00;;;;;;5051828;28;20211;-53
2023/09/11 01:04:43;;;;;;;0.00;0.00;;;20.20;49.10;;;;;;5052031;28;20658;-51
2023/09/11 01:07:14;;;;;;;0.00;0.00;;;20.20;49.10;;;;;;5058300;28;20197;-54
2023/09/11 01:09:45;;;;;;;0.00;0.00;;;20.30;49.10;;;;;;5051339;28;20238;-54
2023/09/11 01:12:18;;;;;;;0.00;0.00;;;20.30;49.10;;;;;;5051675;28;20586;-54
2023/09/11 01:14:49;;;;;;;0.00;0.00;;;20.30;49.10;;;;;;5050859;28;20198;-53
2023/09/11 01:17:27;;;;;;;0.00;0.00;;;20.30;49.10;;;;;;5051132;28;20203;-54
2023/09/11 01:20:24;;;;;;;0.00;0.00;;;20.30;49.10;;;;;;5050690;28;20211;-50
2023/09/11 01:23:26;;;;;;;0.05;0.05;;;20.40;49.10;;;;;;5051723;28;20202;-54
2023/09/11 01:26:13;;;;;;;0.00;0.00;;;20.40;49.10;;;;;;5051749;28;20195;-54
2023/09/11 01:29:11;;;;;;;0.00;0.00;;;20.40;49.10;;;;;;5050785;28;20234;-53
2023/09/11 01:31:45;;;;;;;0.00;0.00;;;20.40;49.10;;;;;;5044409;28;20988;-56
2023/09/11 01:34:16;;;;;;;0.00;0.00;;;20.50;49.20;;;;;;5050683;28;20231;-53
2023/09/11 01:36:46;;;;;;;0.00;0.00;;;20.50;49.20;;;;;;5051142;28;20210;-56
2023/09/11 01:39:18;;;;;;;0.00;0.00;;;20.50;49.20;;;;;;5050117;28;20290;-55
2023/09/11 01:41:51;;;;;;;0.00;0.00;;;20.50;49.20;;;;;;5050650;28;20203;-55
2023/09/11 01:44:28;;;;;;;0.10;0.10;;;20.60;49.20;;;;;;5050461;28;20200;-54
2023/09/11 01:47:02;;;;;;;0.00;0.00;;;20.60;49.20;;;;;;5052120;28;20226;-55
2023/09/11 01:49:34;;;;;;;0.00;0.00;;;20.60;49.20;;;;;;5051574;28;20207;-55
2023/09/11 01:52:06;;;;;;;0.00;0.00;;;20.60;49.20;;;;;;5059561;28;20194;-55
2023/09/11 01:54:38;;;;;;;0.00;0.00;;;20.60;49.20;;;;;;5059497;28;20195;-53
2023/09/11 01:57:10;;;;;;;0.00;0.00;;;20.70;49.20;;;;;;5051696;28;20195;-56
2023/09/11 01:59:42;;;;;;;0.00;0.00;;;20.70;49.20;;;;;;5050518;28;20230;-51
2023/09/11 02:02:13;;;;;;;0.00;0.00;;;20.70;49.10;;;;;;5049853;28;20202;-56
2023/09/11 02:04:43;;;;;;;0.00;0.00;;;20.80;49.10;;;;;;5051056;28;20199;-51
2023/09/11 02:07:14;;;;;;;0.00;0.00;;;20.80;49.10;;;;;;5050384;28;20195;-54
2023/09/11 02:09:45;;;;;;;0.00;0.00;;;20.90;49.10;;;;;;5049903;28;20679;-53
2023/09/11 02:12:15;;;;;;;0.00;0.00;;;20.90;49.00;;;;;;5050639;28;20199;-54
2023/09/11 02:14:48;;;;;;;0.00;0.00;;;20.90;49.00;;;;;;5050924;28;20202;-53
2023/09/11 02:17:18;;;;;;;0.00;0.00;;;20.90;48.80;;;;;;5050370;28;20557;-54
2023/09/11 02:19:49;;;;;;;0.00;0.00;;;21.00;48.80;;;;;;5050575;28;20713;-50
2023/09/11 02:22:20;;;;;;;0.08;0.08;;;21.00;48.80;;;;;;5050849;28;20214;-54
2023/09/11 02:24:50;;;;;;;0.00;0.00;;;21.00;48.80;;;;;;5050032;28;20199;-53
2023/09/11 02:27:21;;;;;;;0.00;0.00;;;21.00;48.70;;;;;;5050517;28;20195;-54
2023/09/11 02:29:53;;;;;;;0.00;0.00;;;21.10;48.80;;;;;;5050133;28;20207;-54
2023/09/11 02:32:24;;;;;;;0.00;0.00;;;21.10;48.80;;;;;;5050201;28;20195;-51
2023/09/11 02:34:54;;;;;;;0.00;0.00;;;21.10;48.80;;;;;;5049592;28;20585;-56
2023/09/11 02:37:25;;;;;;;0.00;0.00;;;21.20;48.70;;;;;;5049968;28;20202;-55
2023/09/11 02:39:56;;;;;;;0.00;0.00;;;21.20;48.70;;;;;;5050325;28;20215;-53
2023/09/11 02:42:26;;;;;;;0.00;0.00;;;21.20;48.70;;;;;;5054741;28;20191;-53
2023/09/11 02:44:59;;;;;;;0.00;0.00;;;21.20;48.70;;;;;;5053808;28;20202;-56
2023/09/11 02:47:30;;;;;;;0.00;0.00;;;21.30;48.70;;;;;;5054065;28;20202;-52
2023/09/11 02:50:00;;;;;;;0.00;0.00;;;21.30;48.70;;;;;;5053982;28;20218;-55
2023/09/11 02:52:31;;;;;;;0.00;0.00;;;21.30;48.70;;;;;;5054625;28;20218;-53
2023/09/11 02:55:01;;;;;;;0.00;0.00;;;21.40;48.70;;;;;;5054190;28;20204;-54
2023/09/11 02:57:32;;;;;;;0.08;0.08;;;21.30;48.60;;;;;;5051118;28;20203;-52
2023/09/11 03:00:06;;;;;;;0.10;0.10;;;21.40;48.70;;;;;;5052805;28;20215;-54
2023/09/11 03:02:39;;;;;;;0.10;0.10;;;21.40;48.60;;;;;;5052825;28;20199;-53
2023/09/11 03:05:10;;;;;;;0.08;0.08;;;21.40;48.60;;;;;;5052184;28;20207;-54
2023/09/11 03:07:40;;;;;;;0.03;0.03;;;21.40;48.60;;;;;;5052662;28;20218;-55
2023/09/11 03:10:11;;;;;;;0.00;0.00;;;21.50;48.60;;;;;;5054578;28;20219;-53
2023/09/11 03:12:42;;;;;;;0.00;0.00;;;21.40;48.60;;;;;;5050500;28;21304;-55
2023/09/11 03:15:15;;;;;;;0.00;0.00;;;21.40;48.60;;;;;;5051156;28;20192;-55
2023/09/11 03:17:50;;;;;;;0.00;0.00;;;21.40;48.50;;;;;;5051343;28;20192;-54
2023/09/11 03:20:21;;;;;;;0.00;0.00;;;21.40;48.50;;;;;;5053538;28;20247;-53
2023/09/11 03:22:52;;;;;;;0.00;0.00;;;21.50;48.50;;;;;;5051223;28;20282;-53
2023/09/11 03:25:22;;;;;;;0.00;0.00;;;21.50;48.50;;;;;;5053817;28;20203;-53
2023/09/11 03:27:53;;;;;;;0.00;0.00;;;21.50;48.20;;;;;;5050030;28;20200;-54
2023/09/11 03:30:26;;;;;;;0.00;0.00;;;21.50;47.40;;;;;;5052536;28;20215;-51
2023/09/11 03:32:56;;;;;;;0.00;0.00;;;21.50;47.10;;;;;;5050254;28;20708;-51
2023/09/11 03:35:27;;;;;;;0.00;0.00;;;21.40;47.40;;;;;;5052608;28;20195;-54
2023/09/11 03:37:58;;;;;;;0.00;0.00;;;21.40;47.40;;;;;;5052931;28;20212;-55
2023/09/11 03:40:30;;;;;;;0.00;0.00;;;21.40;47.30;;;;;;5054094;28;20544;-54
2023/09/11 03:43:01;;;;;;;0.00;0.00;;;21.40;47.10;;;;;;5053759;28;20671;-52
2023/09/11 03:45:34;;;;;;;0.00;0.00;;;21.40;47.00;;;;;;5049885;28;20235;-53
2023/09/11 03:48:04;;;;;;;0.00;0.00;;;21.40;47.00;;;;;;5052212;28;20647;-56
2023/09/11 03:50:35;;;;;;;0.00;0.00;;;21.40;47.00;;;;;;5052845;28;20208;-55
2023/09/11 03:53:06;;;;;;;0.00;0.00;;;21.40;47.00;;;;;;5052602;28;20215;-55
2023/09/11 03:55:36;;;;;;;0.00;0.00;;;21.40;47.20;;;;;;5052986;28;20200;-55
2023/09/11 03:58:07;;;;;;;0.00;0.00;;;21.40;47.30;;;;;;5052284;28;20199;-56
2023/09/11 04:00:40;;;;;;;0.00;0.00;;;21.50;47.40;;;;;;5059954;28;20217;-51
2023/09/11 04:03:10;;;;;;;0.00;0.00;;;21.50;47.50;;;;;;5050531;28;20200;-56
2023/09/11 04:05:41;;;;;;;0.00;0.00;;;21.50;47.50;;;;;;5042989;28;20203;-55
2023/09/11 04:08:12;;;;;;;0.00;0.00;;;21.50;47.40;;;;;;5051839;28;20198;-54
2023/09/11 04:10:42;;;;;;;0.00;0.00;;;21.50;47.50;;;;;;5051235;28;20220;-51
2023/09/11 04:13:13;;;;;;;0.00;0.00;;;21.50;47.50;;;;;;5042522;28;20603;-53
2023/09/11 04:15:46;;;;;;;0.00;0.00;;;21.50;47.60;;;;;;5052217;28;20566;-53
2023/09/11 04:18:17;;;;;;;0.00;0.00;;;21.50;47.40;;;;;;5052378;28;20188;-54
2023/09/11 04:20:48;;;;;;;0.10;0.10;;;21.50;47.20;;;;;;5052900;28;20261;-50
2023/09/11 04:23:18;;;;;;;0.00;0.00;;;21.50;47.10;;;;;;5050809;28;20199;-49
2023/09/11 04:25:55;;;;;;;0.00;0.00;;;21.50;47.10;;;;;;5052786;28;20199;-54
2023/09/11 04:28:26;;;;;;;0.00;0.00;;;21.50;47.10;;;;;;5062860;28;20205;-53
2023/09/11 04:30:58;;;;;;;0.00;0.00;;;21.50;47.10;;;;;;5038603;28;20211;-52
2023/09/11 04:33:29;;;;;;;0.10;0.10;;;21.50;47.00;;;;;;5047616;28;20613;-53
2023/09/11 04:36:00;;;;;;;0.00;0.00;;;21.50;47.10;;;;;;5051260;28;20299;-55
2023/09/11 04:38:30;;;;;;;0.00;0.00;;;21.50;47.20;;;;;;5052004;28;20198;-51
2023/09/11 04:41:01;;;;;;;0.10;0.10;;;21.50;47.20;;;;;;5052230;28;20744;-51
2023/09/11 04:43:32;;;;;;;0.00;0.00;;;21.50;47.30;;;;;;5051620;28;20589;-51
2023/09/11 04:46:04;;;;;;;0.00;0.00;;;21.50;47.40;;;;;;5051358;28;20210;-52
2023/09/11 04:48:36;;;;;;;0.00;0.00;;;21.50;47.50;;;;;;5047900;28;20607;-54
2023/09/11 04:51:06;;;;;;;0.00;0.00;;;21.50;47.50;;;;;;5032372;28;20266;-49
2023/09/11 04:53:37;;;;;;;0.00;0.00;;;21.50;47.50;;;;;;5064325;28;20223;-54
2023/09/11 04:56:08;;;;;;;0.03;0.03;;;21.50;47.50;;;;;;5072562;28;20199;-56
2023/09/11 04:58:38;;;;;;;0.10;0.10;;;21.50;47.40;;;;;;5072071;28;20201;-54
2023/09/11 05:01:11;;;;;;;0.00;0.00;;;21.50;47.30;;;;;;5071633;28;20214;-54
2023/09/11 05:03:42;;;;;;;0.00;0.00;;;21.50;47.30;;;;;;5071921;28;20203;-55
2023/09/11 05:06:12;;;;;;;0.00;0.00;;;21.50;47.30;;;;;;5053935;28;20199;-56
2023/09/11 05:08:43;;;;;;;0.03;0.03;;;21.50;47.20;;;;;;5052703;28;20535;-57
2023/09/11 05:11:13;;;;;;;0.10;0.10;;;21.50;47.20;;;;;;5052875;28;20191;-54
2023/09/11 05:13:44;;;;;;;0.00;0.00;;;21.50;47.20;;;;;;5052168;28;20211;-55
2023/09/11 05:16:18;;;;;;;0.00;0.00;;;21.50;47.10;;;;;;5052021;28;20679;-56
2023/09/11 05:18:49;;;;;;;0.05;0.05;;;21.50;47.20;;;;;;5051203;28;20245;-56
2023/09/11 05:21:19;;;;;;;0.05;0.05;;;21.50;47.30;;;;;;5051171;28;20540;-54
2023/09/11 05:23:50;;;;;;;0.00;0.00;;;21.50;47.30;;;;;;5051553;28;20295;-57
2023/09/11 05:26:21;;;;;;;0.00;0.00;;;21.50;47.20;;;;;;5051905;28;20199;-57
2023/09/11 05:28:51;;;;;;;0.05;0.05;;;21.50;47.10;;;;;;5051218;28;20226;-57
2023/09/11 05:31:24;;;;;;;0.10;0.10;;;21.40;47.10;;;;;;5051459;28;20667;-57
2023/09/11 05:33:54;;;;;;;0.00;0.00;;;21.40;47.10;;;;;;5052078;28;20306;-58
2023/09/11 05:36:25;;;;;;;0.00;0.00;;;21.40;47.20;;;;;;5050526;28;20200;-57
2023/09/11 05:38:56;;;;;;;0.00;0.00;;;21.50;47.20;;;;;;5050360;28;20203;-57
2023/09/11 05:41:26;;;;;;;0.00;0.00;;;21.40;47.20;;;;;;5051114;28;20192;-57
2023/09/11 05:43:57;;;;;;;0.00;0.00;;;21.40;47.20;;;;;;5050199;28;20211;-57
2023/09/11 05:46:29;;;;;;;0.00;0.00;;;21.40;47.30;;;;;;5049833;28;20609;-57
2023/09/11 05:49:00;;;;;;;0.00;0.00;;;21.40;47.30;;;;;;5050451;28;20196;-57
2023/09/11 05:51:31;;;;;;;0.00;0.00;;;21.40;47.40;;;;;;5052605;28;20669;-57
2023/09/11 05:54:02;;;;;;;0.00;0.00;;;21.40;48.10;;;;;;5049909;28;20230;-58
2023/09/11 05:56:32;;;;;;;0.00;0.00;;;21.40;47.50;;;;;;5049804;28;20241;-57
2023/09/11 05:59:03;;;;;;;0.00;0.00;;;21.40;47.40;;;;;;5050177;28;20195;-57
2023/09/11 06:01:36;;;;;;;0.10;0.10;;;21.40;47.40;;;;;;5050665;28;20191;-56
2023/09/11 06:04:07;;;;;;;0.00;0.00;;;21.40;47.70;;;;;;5050231;28;20257;-58
2023/09/11 06:06:37;;;;;;;0.00;0.00;;;21.40;47.40;;;;;;5050269;28;20192;-57
2023/09/11 06:09:08;;;;;;;0.00;0.00;;;21.40;47.40;;;;;;5050490;28;20562;-58
2023/09/11 06:11:39;;;;;;;0.00;0.00;;;21.40;47.40;;;;;;5062437;28;20201;-56
2023/09/11 06:14:10;;;;;;;0.00;0.00;;;21.40;47.30;;;;;;5070498;28;20222;-57
2023/09/11 06:16:42;;;;;;;0.00;0.00;;;21.30;47.30;;;;;;5056752;28;20203;-56
2023/09/11 06:19:13;;;;;;;0.00;0.00;;;21.30;47.30;;;;;;5054753;28;20215;-57
2023/09/11 06:21:46;;;;;;;0.00;0.00;;;21.30;47.30;;;;;;5054792;28;20199;-57
2023/09/11 06:24:16;;;;;;;0.10;0.10;;;21.30;47.40;;;;;;5053801;28;20718;-52
2023/09/11 06:26:47;;;;;;;0.00;0.00;;;21.30;47.40;;;;;;5054038;28;20531;-54
2023/09/11 06:29:17;;;;;;;0.03;0.03;;;21.30;47.40;;;;;;5033874;28;20227;-57
2023/09/11 06:31:50;;;;;;;0.00;0.00;;;21.20;47.40;;;;;;5052096;28;20195;-54
2023/09/11 06:34:21;;;;;;;0.00;0.00;;;21.20;47.50;;;;;;5053759;28;20226;-54
2023/09/11 06:36:52;;;;;;;0.00;0.00;;;21.20;47.50;;;;;;5056500;28;20196;-56
2023/09/11 06:39:23;;;;;;;0.05;0.05;;;21.20;47.50;;;;;;5054338;28;20207;-53
2023/09/11 06:41:53;;;;;;;0.08;0.08;;;21.20;47.50;;;;;;5053779;28;20195;-54
2023/09/11 06:44:24;;;;;;;0.10;0.10;;;21.20;47.40;;;;;;5054200;28;20234;-56
2023/09/11 06:46:56;;;;;;;0.00;0.00;;;21.20;47.50;;;;;;5054216;28;20199;-54
2023/09/11 06:49:27;;;;;;;0.10;0.10;;;21.20;47.50;;;;;;5055073;28;20211;-53
2023/09/11 06:51:58;;;;;;;0.10;0.10;;;21.20;47.50;;;;;;5053860;28;20191;-57
2023/09/11 06:54:28;;;;;;;0.00;0.00;;;21.20;47.50;;;;;;5034819;28;20574;-55
2023/09/11 06:56:59;;;;;;;0.00;0.00;;;21.20;47.50;;;;;;5052768;28;20180;-51
2023/09/11 06:59:29;;;;;;;0.05;0.05;;;21.20;47.50;;;;;;5073851;28;20223;-50
2023/09/11 07:02:02;;;;;;;0.00;0.00;;;21.10;47.50;;;;;;5055692;28;20253;-53
2023/09/11 07:04:34;;;;;;;0.00;0.00;;;21.10;47.50;;;;;;5053652;28;20230;-50
2023/09/11 07:07:04;;;;;;;0.08;0.08;;;21.10;47.50;;;;;;5053139;28;20199;-57
2023/09/11 07:09:37;;;;;;;0.00;0.00;;;21.10;47.50;;;;;;5053318;28;20215;-53
2023/09/11 07:12:08;;;;;;;0.05;0.05;;;21.00;47.60;;;;;;5056459;28;20667;-56
2023/09/11 07:14:39;;;;;;;0.10;0.10;;;21.10;47.60;;;;;;5052919;28;20686;-53
2023/09/11 07:17:12;;;;;;;0.00;0.00;;;21.00;47.60;;;;;;5053678;28;20191;-56
2023/09/11 07:19:42;;;;;;;0.00;0.00;;;21.00;47.60;;;;;;5052768;28;20239;-57
2023/09/11 07:22:13;;;;;;;0.08;0.08;;;21.10;47.70;;;;;;5053289;28;20202;-56
2023/09/11 07:24:44;;;;;;;0.00;0.00;;;21.00;47.70;;;;;;5053278;28;20214;-51
2023/09/11 07:27:14;;;;;;;0.10;0.10;;;21.00;47.70;;;;;;5052156;28;20188;-53
2023/09/11 07:29:45;;;;;;;0.10;0.10;;;21.00;47.70;;;;;;5052880;28;20612;-53
2023/09/11 07:32:17;;;;;;;0.00;0.00;;;21.00;47.70;;;;;;5053667;28;20206;-54
2023/09/11 07:34:48;;;;;;;0.10;0.10;;;21.00;47.70;;;;;;5052511;28;20237;-50
2023/09/11 07:37:18;;;;;;;0.00;0.00;;;21.00;47.70;;;;;;5053339;28;20655;-51
2023/09/11 07:39:49;;;;;;;0.10;0.10;;;20.90;47.60;;;;;;5053749;28;20706;-53
2023/09/11 07:42:20;;;;;;;0.00;0.00;;;20.90;47.60;;;;;;5053614;28;20655;-51
2023/09/11 07:44:50;;;;;;;0.00;0.00;;;20.90;47.60;;;;;;5052963;28;20576;-54
2023/09/11 07:47:23;;;;;;;0.00;0.00;;;20.90;47.70;;;;;;5053094;28;20644;-55
2023/09/11 07:49:53;;;;;;;0.00;0.00;;;20.90;47.70;;;;;;5052911;28;20226;-54
2023/09/11 07:52:24;;;;;;;0.00;0.00;;;20.90;47.70;;;;;;5053606;28;20200;-54
2023/09/11 07:54:55;;;;;;;0.00;0.00;;;20.80;47.70;;;;;;5054088;28;20239;-54
2023/09/11 07:57:26;;;;;;;0.03;0.03;;;20.80;47.80;;;;;;5073064;28;20218;-55
2023/09/11 07:59:57;;;;;;;0.10;0.10;;;20.80;47.80;;;;;;5073162;28;20223;-54
2023/09/11 08:02:29;;;;;;;0.00;0.00;;;20.80;47.80;;;;;;5073305;28;20202;-51
2023/09/11 08:05:00;;;;;;;0.00;0.00;;;20.80;47.90;;;;;;5064362;28;20195;-54
2023/09/11 08:07:31;;;;;;;0.00;0.00;;;20.80;47.90;;;;;;5053028;28;20544;-52
2023/09/11 08:10:01;;;;;;;0.00;0.00;;;20.80;47.90;;;;;;5052540;28;20628;-51
2023/09/11 08:12:34;;;;;;;0.00;0.00;;;20.80;47.90;;;;;;5052602;28;20644;-53
2023/09/11 08:15:05;;;;;;;0.00;0.00;;;20.70;47.90;;;;;;5052387;28;20638;-51
2023/09/11 08:17:37;;;;;;;0.08;0.08;;;20.80;48.00;;;;;;5052820;28;20203;-56
2023/09/11 08:20:09;;;;;;;0.10;0.10;;;20.70;47.90;;;;;;5052236;28;20211;-52
2023/09/11 08:22:39;;;;;;;0.00;0.00;;;20.70;47.90;;;;;;5052354;28;20206;-50
2023/09/11 08:25:10;;;;;;;0.00;0.00;;;20.70;47.90;;;;;;5052473;28;20202;-55
2023/09/11 08:27:41;;;;;;;0.00;0.00;;;20.70;48.00;;;;;;5052542;28;20202;-54
2023/09/11 08:30:13;;;;;;;0.00;0.00;;;20.70;47.90;;;;;;5048437;28;21938;-53
2023/09/11 08:32:46;;;;;;;0.00;0.00;;;20.60;47.90;;;;;;5054751;28;20278;-52
2023/09/11 08:35:16;;;;;;;0.10;0.10;;;20.60;47.90;;;;;;5047904;28;20219;-52
2023/09/11 08:37:47;;;;;;;0.00;0.00;;;20.60;48.00;;;;;;5047041;28;20198;-57
2023/09/11 08:40:18;;;;;;;0.10;0.10;;;20.60;48.10;;;;;;5050713;28;20207;-57
2023/09/11 08:42:52;;;;;;;0.00;0.00;;;20.50;48.10;;;;;;5048529;28;20670;-54
2023/09/11 08:45:22;;;;;;;0.10;0.10;;;20.50;48.20;;;;;;5047285;28;20207;-54
2023/09/11 08:47:58;;;;;;;0.03;0.03;;;20.50;48.20;;;;;;5049979;28;20199;-53
2023/09/11 08:50:33;;;;;;;0.10;0.10;;;20.50;48.30;;;;;;5050628;28;20226;-57
2023/09/11 08:53:04;;;;;;;0.00;0.00;;;20.50;48.30;;;;;;5046806;28;20260;-57
2023/09/11 08:55:36;;;;;;;0.00;0.00;;;20.40;48.20;;;;;;5050559;28;20258;-55
2023/09/11 08:58:13;;;;;;;0.00;0.00;;;20.40;48.20;;;;;;5049251;28;20420;-57
2023/09/11 09:00:44;;;;;;;0.10;0.10;;;20.40;48.90;;;;;;5053980;28;20226;-56
2023/09/11 09:03:17;;;;;;;0.00;0.00;;;20.40;48.30;;;;;;5048273;28;20333;-57
2023/09/11 09:05:49;;;;;;;0.00;0.00;;;20.40;48.30;;;;;;5049405;28;20586;-51
2023/09/11 09:08:21;;;;;;;0.10;0.10;;;20.40;48.40;;;;;;5050533;28;20615;-51
2023/09/11 09:10:52;;;;;;;0.08;0.08;;;20.30;48.30;;;;;;5048374;28;20218;-57
2023/09/11 09:13:22;;;;;;;0.00;0.00;;;20.30;48.30;;;;;;5048197;28;20196;-52
2023/09/11 09:15:53;;;;;;;0.10;0.10;;;20.30;48.40;;;;;;5049930;28;20273;-56
2023/09/11 09:18:25;;;;;;;0.10;0.10;;;20.30;48.40;;;;;;5048522;28;20621;-54
2023/09/11 09:20:56;;;;;;;0.00;0.00;;;20.30;48.50;;;;;;5049226;28;20709;-53
2023/09/11 09:23:39;;;;;;;0.00;0.00;;;20.20;48.40;;;;;;5044800;28;20729;-54
2023/09/11 09:26:11;;;;;;;0.00;0.00;;;20.20;48.50;;;;;;5047913;28;20192;-50
2023/09/11 09:28:48;;;;;;;0.03;0.03;;;20.20;48.50;;;;;;5048118;28;20283;-52
2023/09/11 09:31:26;;;;;;;0.00;0.00;;;20.20;48.50;;;;;;5047776;28;20195;-54
2023/09/11 09:33:59;;;;;;;0.10;0.10;;;20.20;48.50;;;;;;5037840;28;20279;-55
2023/09/11 09:36:30;;;;;;;0.10;0.10;;;20.20;48.50;;;;;;5049890;28;20683;-52
2023/09/11 09:39:01;;;;;;;0.00;0.00;;;20.10;48.50;;;;;;5046834;28;20195;-51
2023/09/11 09:41:32;;;;;;;0.00;0.00;;;20.10;48.50;;;;;;5048151;28;20608;-54
2023/09/11 09:44:02;;;;;;;0.00;0.00;;;20.10;48.50;;;;;;5047855;28;20204;-55
2023/09/11 09:46:33;;;;;;;0.10;0.10;;;20.10;48.50;;;;;;5049092;28;20196;-47
2023/09/11 09:49:06;;;;;;;0.10;0.10;;;20.10;48.50;;;;;;5049397;28;20202;-51
2023/09/11 09:51:48;;;;;;;0.00;0.00;;;20.00;48.60;;;;;;5049120;28;20207;-54
2023/09/11 09:54:19;;;;;;;0.00;0.00;;;20.00;48.50;;;;;;5047973;28;20197;-52
2023/09/11 09:56:51;;;;;;;0.10;0.10;;;20.00;48.50;;;;;;5048429;28;20702;-53
2023/09/11 09:59:26;;;;;;;0.10;0.10;;;20.00;48.60;;;;;;5049145;28;20261;-51
2023/09/11 10:01:57;;;;;;;0.03;0.03;;;20.00;48.60;;;;;;5046567;28;20530;-57
2023/09/11 10:04:31;;;;;;;0.00;0.00;;;19.90;48.60;;;;;;5049924;28;20195;-53
2023/09/11 10:07:02;;;;;;;0.00;0.00;;;20.00;48.70;;;;;;5048017;28;20643;-55
2023/09/11 10:09:32;;;;;;;0.00;0.00;;;19.90;48.60;;;;;;5048015;28;20211;-55
2023/09/11 10:12:06;;;;;;;0.00;0.00;;;19.90;48.60;;;;;;5047950;28;20196;-55
2023/09/11 10:14:37;;;;;;;0.08;0.08;;;19.90;48.70;;;;;;5048461;28;20290;-54
2023/09/11 10:17:08;;;;;;;0.00;0.00;;;19.90;48.70;;;;;;5044554;28;20196;-53
2023/09/11 10:19:42;;;;;;;0.00;0.00;;;19.90;48.70;;;;;;5048118;28;20222;-55
2023/09/11 10:22:12;;;;;;;0.05;0.05;;;19.80;48.60;;;;;;5048232;28;20655;-50
2023/09/11 10:24:43;;;;;;;0.08;0.08;;;19.80;48.60;;;;;;5047637;28;20200;-52
2023/09/11 10:27:14;;;;;;;0.10;0.10;;;19.80;48.70;;;;;;5048053;28;20198;-53
2023/09/11 10:29:53;;;;;;;0.00;0.00;;;19.80;48.70;;;;;;5058718;28;20234;-54
2023/09/11 10:32:28;;;;;;;0.10;0.10;;;19.80;48.70;;;;;;5048518;28;20282;-50
2023/09/11 10:35:03;;;;;;;0.10;0.10;;;19.70;48.70;;;;;;5047956;28;20199;-51
2023/09/11 10:37:34;;;;;;;0.05;0.05;;;19.70;48.70;;;;;;5048811;28;20237;-51
2023/09/11 10:40:05;;;;;;;0.00;0.00;;;19.70;48.70;;;;;;5047732;28;20219;-51
2023/09/11 10:42:36;;;;;;;0.00;0.00;;;19.60;48.70;;;;;;5050400;28;20231;-53
2023/09/11 10:45:07;;;;;;;0.00;0.00;;;19.60;48.70;;;;;;5048671;28;20215;-57
2023/09/11 10:47:52;;;;;;;0.00;0.00;;;19.70;48.80;;;;;;5048139;28;20200;-55
2023/09/11 10:50:26;;;;;;;0.00;0.00;;;19.60;48.80;;;;;;5048344;28;20215;-53
2023/09/11 10:52:57;;;;;;;0.00;0.00;;;19.60;48.70;;;;;;5047919;28;20198;-49
2023/09/11 10:55:28;;;;;;;0.00;0.00;;;19.60;48.70;;;;;;5049318;28;20223;-54
2023/09/11 10:58:04;;;;;;;0.00;0.00;;;19.60;48.80;;;;;;5056177;28;20214;-54
2023/09/11 11:00:40;;;;;;;0.00;0.00;;;19.60;48.80;;;;;;5049038;28;20654;-52
2023/09/11 11:03:16;;;;;;;0.00;0.00;;;19.60;48.80;;;;;;5053106;28;20638;-56
2023/09/11 11:05:49;;;;;;;0.10;0.10;;;19.50;48.80;;;;;;5053324;28;20264;-58
2023/09/11 11:08:21;;;;;;;0.10;0.10;;;19.50;48.80;;;;;;5053368;28;20203;-55
2023/09/11 11:10:54;;;;;;;0.00;0.00;;;19.50;48.80;;;;;;5052933;28;20709;-51
2023/09/11 11:13:25;;;;;;;0.00;0.00;;;19.40;48.80;;;;;;5054059;28;20192;-56
2023/09/11 11:16:26;;;;;;;0.00;0.00;;;19.50;48.80;;;;;;5055763;28;20207;-51
2023/09/11 11:18:57;;;;;;;0.00;0.00;;;19.40;48.80;;;;;;5053107;28;20299;-53
2023/09/11 11:21:41;;;;;;;0.00;0.00;;;19.40;48.80;;;;;;5051516;28;20207;-56
2023/09/11 11:24:13;;;;;;;0.00;0.00;;;19.40;49.50;;;;;;5053072;28;20191;-56
2023/09/11 11:26:43;;;;;;;0.00;0.00;;;19.40;48.80;;;;;;5053848;28;20195;-51
2023/09/11 11:29:14;;;;;;;0.00;0.00;;;19.30;48.80;;;;;;5053526;28;20223;-53
2023/09/11 11:31:46;;;;;;;0.10;0.10;;;19.30;48.80;;;;;;5052441;28;20207;-53
2023/09/11 11:34:19;;;;;;;0.10;0.10;;;19.30;48.80;;;;;;5052983;28;20354;-54
2023/09/11 11:36:55;;;;;;;0.10;0.10;;;19.30;48.80;;;;;;5039888;28;20848;-52
2023/09/11 11:39:26;;;;;;;0.10;0.10;;;19.30;48.90;;;;;;5036289;28;20687;-51
2023/09/11 11:41:57;;;;;;;0.00;0.00;;;19.30;48.90;;;;;;5052702;28;20196;-52
2023/09/11 11:44:30;;;;;;;0.00;0.00;;;19.20;48.80;;;;;;5053161;28;20203;-53
2023/09/11 11:47:01;;;;;;;0.00;0.00;;;19.20;48.90;;;;;;5061745;28;20202;-50
2023/09/11 11:49:32;;;;;;;0.03;0.03;;;19.20;48.90;;;;;;5069487;28;20225;-50
2023/09/11 11:52:06;;;;;;;0.00;0.00;;;19.20;48.90;;;;;;5052122;28;20199;-55
2023/09/11 11:54:37;;;;;;;0.10;0.10;;;19.20;48.90;;;;;;5033089;28;20618;-57
2023/09/11 11:57:09;;;;;;;0.00;0.00;;;19.20;48.90;;;;;;5033404;28;20220;-57
2023/09/11 11:59:41;;;;;;;0.00;0.00;;;19.10;48.90;;;;;;5033672;28;20222;-55
2023/09/11 12:02:23;;;;;;;0.00;0.00;;;19.10;48.90;;;;;;5047558;28;20183;-56
2023/09/11 12:04:55;;;;;;;0.00;0.00;;;19.10;48.90;;;;;;5066184;28;20610;-57
2023/09/11 12:07:29;;;;;;;0.03;0.03;;;19.10;49.00;;;;;;5052861;28;20241;-53
2023/09/11 12:09:59;;;;;;;0.10;0.10;;;19.00;48.90;;;;;;5052864;28;20435;-55
2023/09/11 12:12:30;;;;;;;0.00;0.00;;;19.10;49.00;;;;;;5052983;28;20192;-55
2023/09/11 12:15:02;;;;;;;0.10;0.10;;;19.00;48.90;;;;;;5052270;28;20202;-55
2023/09/11 12:17:33;;;;;;;0.00;0.00;;;19.00;48.90;;;;;;5052443;28;20269;-52
2023/09/11 12:20:14;;;;;;;0.00;0.00;;;19.00;48.90;;;;;;5052911;28;20219;-57
2023/09/11 12:22:49;;;;;;;0.10;0.10;;;19.00;48.90;;;;;;5052550;28;20210;-54
2023/09/11 12:25:20;;;;;;;0.10;0.10;;;19.00;48.90;;;;;;5055460;28;20254;-55
2023/09/11 12:27:51;;;;;;;0.00;0.00;;;19.00;48.90;;;;;;5053261;28;20191;-53
2023/09/11 12:30:21;;;;;;;0.00;0.00;;;18.90;48.90;;;;;;5052793;28;20219;-53
2023/09/11 12:32:52;;;;;;;0.00;0.00;;;18.90;48.90;;;;;;5052313;28;20204;-57
2023/09/11 12:35:34;;;;;;;0.00;0.00;;;18.90;48.90;;;;;;5052445;28;20200;-57
2023/09/11 12:38:10;;;;;;;0.00;0.00;;;18.90;49.00;;;;;;5052794;28;20203;-57
2023/09/11 12:40:42;;;;;;;0.00;0.00;;;18.90;49.00;;;;;;5052757;28;20664;-56
2023/09/11 12:43:13;;;;;;;0.00;0.00;;;18.80;48.90;;;;;;5052664;28;20269;-56
2023/09/11 12:45:45;;;;;;;0.00;0.00;;;18.80;49.00;;;;;;5052711;28;20199;-58
2023/09/11 12:48:17;;;;;;;0.00;0.00;;;18.80;49.00;;;;;;5052681;28;20648;-55
2023/09/11 12:50:47;;;;;;;0.10;0.10;;;18.80;49.00;;;;;;5052510;28;20561;-53
2023/09/11 12:53:20;;;;;;;0.10;0.10;;;18.80;49.00;;;;;;5052466;28;20202;-51
2023/09/11 12:55:52;;;;;;;0.10;0.10;;;18.80;49.00;;;;;;5052602;28;20582;-54
2023/09/11 12:58:23;;;;;;;0.08;0.08;;;18.80;49.00;;;;;;5051642;28;20559;-50
2023/09/11 13:00:53;;;;;;;0.00;0.00;;;18.70;48.90;;;;;;5051442;28;20215;-51
2023/09/11 13:03:25;;;;;;;0.00;0.00;;;18.70;49.00;;;;;;5051890;28;20191;-49
2023/09/11 13:05:56;;;;;;;0.00;0.00;;;18.70;49.00;;;;;;5052405;28;20654;-50
2023/09/11 13:08:31;;;;;;;0.00;0.00;;;18.70;49.00;;;;;;5051430;28;20269;-53
2023/09/11 13:11:02;;;;;;;0.00;0.00;;;18.70;49.00;;;;;;5053126;28;20581;-52
2023/09/11 13:13:33;;;;;;;0.00;0.00;;;18.70;49.00;;;;;;5051048;28;20497;-52